Terminal Aerodrome Forecast
Issued by NWS Tuscon, AZ

Home | Current Version | Previous Version | Text Only | Print | Product List | Glossary On
Versions: 1 2 3 4 5 6 7 8 9 10 11 12 13 14 15 16 17 18
000
FTUS45 KTWC 232329
TAFDUG
TAF
KDUG 232329Z 2400/2424 30010KT P6SM SCT080 SCT120 BKN200
     FM240100 35010KT P6SM VCSH SCT100 BKN120
     FM240400 25005KT P6SM FEW100 SCT120 BKN200
     FM241000 VRB03KT P6SM FEW140 SCT200
     FM242000 31010KT P6SM SCT080 SCT120=

USA.gov is the U.S. government's official web portal to all federal, state and local government web resources and services.